Conceicao das Alagoas, Brazil
Current Conditions -  °F | °C
As of 6:00 AM on Wednesday 22 Oct 2014 (Local Time) from SBUR Reporting Station
Clear Clear  
Wind Chill: 68°   Ceiling: Unl
Heat Index: 68°   Visibility: 5mi
Dew Point: 61°   Wind: 7mph
Humidity: 78%   Direction: 80°E
Pressure: 30.03"   Gusts: NA
Location:  19.91°S, 48.39°W
Report Text: SBUR 220800Z 08006KT 8000 NSC 20/16 Q1017
Loading
Personal Weather Stations






























Interactive Weather Map
Tropical Storm Tracking
New forecast layout! Learn more

10-Day Weather Forecast

Advertisements
Track Severe Weather on mobile